Terminal Aerodrome Forecast
Issued by NWS Twin Cities, MN

Home | Current Version | Previous Version | Graphics & Text | Print | Product List | Glossary On
Versions: 1 2 3 4 5 6 7 8 9 10 11 12 13 14 15 16 17 18 19 20 21 22 23 24 25 26 27 28
874
FTUS43 KMPX 282058 AAA
TAFMSP
TAF AMD
KMSP 282058Z 2821/2924 29016G25KT P6SM VCSH BKN060
     FM290200 28008KT P6SM SCT060
     FM290900 28010KT P6SM BKN050
     FM291500 29013G25KT P6SM VCSH BKN025=

USA.gov is the U.S. government's official web portal to all federal, state and local government web resources and services.